sensor_id;sensor_type;location;lat;lon;timestamp;P1;durP1;ratioP1;P2;durP2;ratioP2
67556;SDS011;54387;53.526;49.300;2023-11-19T00:00:26;3.20;;;1.73;;
67556;SDS011;54387;53.526;49.300;2023-11-19T00:02:53;3.22;;;1.52;;
67556;SDS011;54387;53.526;49.300;2023-11-19T00:05:20;3.53;;;1.27;;
67556;SDS011;54387;53.526;49.300;2023-11-19T00:07:46;3.67;;;1.30;;
67556;SDS011;54387;53.526;49.300;2023-11-19T00:10:14;6.53;;;1.67;;
67556;SDS011;54387;53.526;49.300;2023-11-19T00:12:44;6.53;;;1.95;;
67556;SDS011;54387;53.526;49.300;2023-11-19T00:15:13;3.85;;;1.48;;
67556;SDS011;54387;53.526;49.300;2023-11-19T00:17:41;4.05;;;1.60;;
67556;SDS011;54387;53.526;49.300;2023-11-19T00:20:14;3.42;;;1.60;;
67556;SDS011;54387;53.526;49.300;2023-11-19T00:22:42;5.22;;;1.85;;
67556;SDS011;54387;53.526;49.300;2023-11-19T00:25:09;5.18;;;1.63;;
67556;SDS011;54387;53.526;49.300;2023-11-19T00:27:36;4.30;;;1.60;;
67556;SDS011;54387;53.526;49.300;2023-11-19T00:30:05;5.15;;;1.88;;
67556;SDS011;54387;53.526;49.300;2023-11-19T00:32:34;6.18;;;2.20;;
67556;SDS011;54387;53.526;49.300;2023-11-19T00:35:00;6.18;;;2.13;;
67556;SDS011;54387;53.526;49.300;2023-11-19T00:37:27;6.03;;;2.35;;
67556;SDS011;54387;53.526;49.300;2023-11-19T00:39:53;6.45;;;2.35;;
67556;SDS011;54387;53.526;49.300;2023-11-19T00:42:22;4.07;;;1.90;;
67556;SDS011;54387;53.526;49.300;2023-11-19T00:44:52;6.60;;;2.15;;
67556;SDS011;54387;53.526;49.300;2023-11-19T00:47:21;3.40;;;1.80;;
67556;SDS011;54387;53.526;49.300;2023-11-19T00:49:47;6.93;;;2.40;;
67556;SDS011;54387;53.526;49.300;2023-11-19T00:52:14;8.07;;;2.03;;
67556;SDS011;54387;53.526;49.300;2023-11-19T00:54:44;6.20;;;1.98;;
67556;SDS011;54387;53.526;49.300;2023-11-19T00:57:10;4.68;;;1.95;;
67556;SDS011;54387;53.526;49.300;2023-11-19T00:59:37;5.05;;;2.08;;
67556;SDS011;54387;53.526;49.300;2023-11-19T01:02:03;3.45;;;1.88;;
67556;SDS011;54387;53.526;49.300;2023-11-19T01:04:35;5.18;;;1.88;;
67556;SDS011;54387;53.526;49.300;2023-11-19T01:07:02;5.90;;;2.38;;
67556;SDS011;54387;53.526;49.300;2023-11-19T01:09:29;5.38;;;2.17;;
67556;SDS011;54387;53.526;49.300;2023-11-19T01:11:58;2.75;;;1.65;;
67556;SDS011;54387;53.526;49.300;2023-11-19T01:14:26;18.90;;;4.13;;
67556;SDS011;54387;53.526;49.300;2023-11-19T01:16:53;4.22;;;1.98;;
67556;SDS011;54387;53.526;49.300;2023-11-19T01:19:22;5.10;;;2.30;;
67556;SDS011;54387;53.526;49.300;2023-11-19T01:21:49;10.70;;;2.40;;
67556;SDS011;54387;53.526;49.300;2023-11-19T01:24:15;7.82;;;2.33;;
67556;SDS011;54387;53.526;49.300;2023-11-19T01:26:43;7.63;;;2.15;;
67556;SDS011;54387;53.526;49.300;2023-11-19T01:29:14;4.63;;;1.63;;
67556;SDS011;54387;53.526;49.300;2023-11-19T01:31:41;3.05;;;1.80;;
67556;SDS011;54387;53.526;49.300;2023-11-19T01:34:08;4.20;;;1.75;;
67556;SDS011;54387;53.526;49.300;2023-11-19T01:36:34;3.35;;;1.98;;
67556;SDS011;54387;53.526;49.300;2023-11-19T01:39:00;4.38;;;1.80;;
67556;SDS011;54387;53.526;49.300;2023-11-19T01:41:27;5.45;;;1.80;;
67556;SDS011;54387;53.526;49.300;2023-11-19T01:43:53;3.95;;;2.00;;
67556;SDS011;54387;53.526;49.300;2023-11-19T01:46:19;6.60;;;2.20;;
67556;SDS011;54387;53.526;49.300;2023-11-19T01:48:46;4.93;;;2.30;;
67556;SDS011;54387;53.526;49.300;2023-11-19T01:51:13;3.10;;;1.90;;
67556;SDS011;54387;53.526;49.300;2023-11-19T01:53:42;5.78;;;2.03;;
67556;SDS011;54387;53.526;49.300;2023-11-19T01:56:09;8.05;;;3.20;;
67556;SDS011;54387;53.526;49.300;2023-11-19T01:58:40;4.82;;;2.15;;
67556;SDS011;54387;53.526;49.300;2023-11-19T02:01:08;5.50;;;2.00;;
67556;SDS011;54387;53.526;49.300;2023-11-19T02:03:36;5.60;;;2.10;;
67556;SDS011;54387;53.526;49.300;2023-11-19T02:06:03;5.05;;;1.70;;
67556;SDS011;54387;53.526;49.300;2023-11-19T02:08:30;3.72;;;1.95;;
67556;SDS011;54387;53.526;49.300;2023-11-19T02:10:57;6.18;;;2.08;;
67556;SDS011;54387;53.526;49.300;2023-11-19T02:13:26;5.07;;;2.22;;
67556;SDS011;54387;53.526;49.300;2023-11-19T02:15:54;3.70;;;1.67;;
67556;SDS011;54387;53.526;49.300;2023-11-19T02:18:21;4.25;;;1.90;;
67556;SDS011;54387;53.526;49.300;2023-11-19T02:20:56;3.95;;;1.52;;
67556;SDS011;54387;53.526;49.300;2023-11-19T02:23:25;5.78;;;1.67;;
67556;SDS011;54387;53.526;49.300;2023-11-19T02:26:01;5.38;;;1.63;;
67556;SDS011;54387;53.526;49.300;2023-11-19T02:28:34;5.70;;;1.80;;
67556;SDS011;54387;53.526;49.300;2023-11-19T02:31:02;4.28;;;1.85;;
67556;SDS011;54387;53.526;49.300;2023-11-19T02:33:30;9.80;;;2.00;;
67556;SDS011;54387;53.526;49.300;2023-11-19T02:35:57;2.95;;;1.55;;
67556;SDS011;54387;53.526;49.300;2023-11-19T02:38:23;3.53;;;1.73;;
67556;SDS011;54387;53.526;49.300;2023-11-19T02:40:50;5.15;;;1.60;;
67556;SDS011;54387;53.526;49.300;2023-11-19T02:43:16;7.05;;;2.00;;
67556;SDS011;54387;53.526;49.300;2023-11-19T02:45:43;4.88;;;1.67;;
67556;SDS011;54387;53.526;49.300;2023-11-19T02:48:11;3.42;;;1.70;;
67556;SDS011;54387;53.526;49.300;2023-11-19T02:50:37;5.90;;;1.75;;
67556;SDS011;54387;53.526;49.300;2023-11-19T02:53:03;3.10;;;1.60;;
67556;SDS011;54387;53.526;49.300;2023-11-19T02:55:29;6.93;;;2.05;;
67556;SDS011;54387;53.526;49.300;2023-11-19T02:58:01;4.85;;;1.48;;
67556;SDS011;54387;53.526;49.300;2023-11-19T03:00:33;5.18;;;1.70;;
67556;SDS011;54387;53.526;49.300;2023-11-19T03:03:03;2.28;;;1.38;;
67556;SDS011;54387;53.526;49.300;2023-11-19T03:05:58;2.65;;;1.20;;
67556;SDS011;54387;53.526;49.300;2023-11-19T03:08:24;4.47;;;1.55;;
67556;SDS011;54387;53.526;49.300;2023-11-19T03:10:51;2.88;;;1.63;;
67556;SDS011;54387;53.526;49.300;2023-11-19T03:13:17;3.65;;;1.30;;
67556;SDS011;54387;53.526;49.300;2023-11-19T03:15:43;3.67;;;1.42;;
67556;SDS011;54387;53.526;49.300;2023-11-19T03:18:10;5.65;;;2.10;;
67556;SDS011;54387;53.526;49.300;2023-11-19T03:20:36;3.03;;;1.50;;
67556;SDS011;54387;53.526;49.300;2023-11-19T03:23:02;5.82;;;1.48;;
67556;SDS011;54387;53.526;49.300;2023-11-19T03:25:29;2.42;;;1.30;;
67556;SDS011;54387;53.526;49.300;2023-11-19T03:27:59;3.08;;;1.40;;
67556;SDS011;54387;53.526;49.300;2023-11-19T03:30:32;3.83;;;1.50;;
67556;SDS011;54387;53.526;49.300;2023-11-19T03:32:58;4.40;;;2.03;;
67556;SDS011;54387;53.526;49.300;2023-11-19T03:35:26;7.07;;;1.45;;
67556;SDS011;54387;53.526;49.300;2023-11-19T03:37:53;5.18;;;2.08;;
67556;SDS011;54387;53.526;49.300;2023-11-19T03:40:19;5.80;;;1.88;;
67556;SDS011;54387;53.526;49.300;2023-11-19T03:42:47;6.90;;;1.67;;
67556;SDS011;54387;53.526;49.300;2023-11-19T03:45:13;9.07;;;2.20;;
67556;SDS011;54387;53.526;49.300;2023-11-19T03:47:41;4.35;;;1.38;;
67556;SDS011;54387;53.526;49.300;2023-11-19T03:50:08;4.53;;;1.42;;
67556;SDS011;54387;53.526;49.300;2023-11-19T03:52:34;3.00;;;1.60;;
67556;SDS011;54387;53.526;49.300;2023-11-19T03:55:01;6.28;;;1.98;;
67556;SDS011;54387;53.526;49.300;2023-11-19T03:57:30;3.70;;;1.38;;
67556;SDS011;54387;53.526;49.300;2023-11-19T03:59:56;3.22;;;1.50;;
67556;SDS011;54387;53.526;49.300;2023-11-19T04:02:24;3.67;;;1.90;;
67556;SDS011;54387;53.526;49.300;2023-11-19T04:04:53;6.00;;;1.90;;
67556;SDS011;54387;53.526;49.300;2023-11-19T04:07:20;4.63;;;1.40;;
67556;SDS011;54387;53.526;49.300;2023-11-19T04:09:46;9.57;;;1.70;;
67556;SDS011;54387;53.526;49.300;2023-11-19T04:12:13;9.60;;;1.83;;
67556;SDS011;54387;53.526;49.300;2023-11-19T04:14:39;2.90;;;1.63;;
67556;SDS011;54387;53.526;49.300;2023-11-19T04:17:06;7.28;;;2.03;;
67556;SDS011;54387;53.526;49.300;2023-11-19T04:19:32;6.15;;;2.17;;
67556;SDS011;54387;53.526;49.300;2023-11-19T04:21:58;6.45;;;1.38;;
67556;SDS011;54387;53.526;49.300;2023-11-19T04:24:24;4.57;;;2.58;;
67556;SDS011;54387;53.526;49.300;2023-11-19T04:26:50;4.65;;;1.60;;
67556;SDS011;54387;53.526;49.300;2023-11-19T04:29:17;4.53;;;1.98;;
67556;SDS011;54387;53.526;49.300;2023-11-19T04:31:45;3.72;;;1.77;;
67556;SDS011;54387;53.526;49.300;2023-11-19T04:34:11;2.78;;;1.40;;
67556;SDS011;54387;53.526;49.300;2023-11-19T04:36:38;3.70;;;1.83;;
67556;SDS011;54387;53.526;49.300;2023-11-19T04:39:05;4.55;;;1.88;;
67556;SDS011;54387;53.526;49.300;2023-11-19T04:41:51;11.95;;;2.08;;
67556;SDS011;54387;53.526;49.300;2023-11-19T04:44:18;4.43;;;1.50;;
67556;SDS011;54387;53.526;49.300;2023-11-19T04:46:45;4.63;;;1.35;;
67556;SDS011;54387;53.526;49.300;2023-11-19T04:49:12;4.30;;;1.70;;
67556;SDS011;54387;53.526;49.300;2023-11-19T04:51:43;2.90;;;1.60;;
67556;SDS011;54387;53.526;49.300;2023-11-19T04:54:12;2.65;;;1.30;;
67556;SDS011;54387;53.526;49.300;2023-11-19T04:56:39;4.60;;;1.10;;
67556;SDS011;54387;53.526;49.300;2023-11-19T04:59:06;3.20;;;1.63;;
67556;SDS011;54387;53.526;49.300;2023-11-19T05:01:34;3.50;;;1.35;;
67556;SDS011;54387;53.526;49.300;2023-11-19T05:04:01;6.47;;;1.83;;
67556;SDS011;54387;53.526;49.300;2023-11-19T05:06:29;4.40;;;1.55;;
67556;SDS011;54387;53.526;49.300;2023-11-19T05:08:56;2.72;;;1.42;;
67556;SDS011;54387;53.526;49.300;2023-11-19T05:11:27;3.17;;;1.40;;
67556;SDS011;54387;53.526;49.300;2023-11-19T05:13:54;3.33;;;1.33;;
67556;SDS011;54387;53.526;49.300;2023-11-19T05:16:20;5.03;;;1.40;;
67556;SDS011;54387;53.526;49.300;2023-11-19T05:18:47;5.70;;;1.55;;
67556;SDS011;54387;53.526;49.300;2023-11-19T05:21:13;2.65;;;1.33;;
67556;SDS011;54387;53.526;49.300;2023-11-19T05:23:39;2.28;;;1.27;;
67556;SDS011;54387;53.526;49.300;2023-11-19T05:26:07;2.90;;;1.17;;
67556;SDS011;54387;53.526;49.300;2023-11-19T05:28:34;8.68;;;1.90;;
67556;SDS011;54387;53.526;49.300;2023-11-19T05:31:01;7.47;;;2.10;;
67556;SDS011;54387;53.526;49.300;2023-11-19T05:33:27;2.03;;;0.80;;
67556;SDS011;54387;53.526;49.300;2023-11-19T05:35:54;3.55;;;1.45;;
67556;SDS011;54387;53.526;49.300;2023-11-19T05:38:20;4.82;;;1.45;;
67556;SDS011;54387;53.526;49.300;2023-11-19T05:40:47;5.03;;;1.70;;
67556;SDS011;54387;53.526;49.300;2023-11-19T05:43:14;3.78;;;1.80;;
67556;SDS011;54387;53.526;49.300;2023-11-19T05:45:42;3.40;;;1.40;;
67556;SDS011;54387;53.526;49.300;2023-11-19T05:48:09;4.53;;;1.25;;
67556;SDS011;54387;53.526;49.300;2023-11-19T05:50:35;4.20;;;1.23;;
67556;SDS011;54387;53.526;49.300;2023-11-19T05:53:02;2.97;;;1.20;;
67556;SDS011;54387;53.526;49.300;2023-11-19T05:55:33;1.63;;;0.85;;
67556;SDS011;54387;53.526;49.300;2023-11-19T05:58:00;3.20;;;1.45;;
67556;SDS011;54387;53.526;49.300;2023-11-19T06:00:26;2.95;;;1.25;;
67556;SDS011;54387;53.526;49.300;2023-11-19T06:02:52;4.13;;;1.58;;
67556;SDS011;54387;53.526;49.300;2023-11-19T06:05:19;6.50;;;1.85;;
67556;SDS011;54387;53.526;49.300;2023-11-19T06:07:45;5.18;;;1.80;;
67556;SDS011;54387;53.526;49.300;2023-11-19T06:10:11;2.10;;;1.15;;
67556;SDS011;54387;53.526;49.300;2023-11-19T06:12:39;2.90;;;1.50;;
67556;SDS011;54387;53.526;49.300;2023-11-19T06:15:06;4.30;;;1.30;;
67556;SDS011;54387;53.526;49.300;2023-11-19T06:17:36;4.80;;;1.65;;
67556;SDS011;54387;53.526;49.300;2023-11-19T06:20:03;4.57;;;1.10;;
67556;SDS011;54387;53.526;49.300;2023-11-19T06:22:30;5.72;;;1.88;;
67556;SDS011;54387;53.526;49.300;2023-11-19T06:24:57;3.42;;;1.50;;
67556;SDS011;54387;53.526;49.300;2023-11-19T06:27:24;3.95;;;1.33;;
67556;SDS011;54387;53.526;49.300;2023-11-19T06:29:50;5.32;;;1.70;;
67556;SDS011;54387;53.526;49.300;2023-11-19T06:32:16;3.20;;;1.55;;
67556;SDS011;54387;53.526;49.300;2023-11-19T06:34:42;7.13;;;1.85;;
67556;SDS011;54387;53.526;49.300;2023-11-19T06:37:08;3.67;;;1.10;;
67556;SDS011;54387;53.526;49.300;2023-11-19T06:39:35;2.65;;;1.30;;
67556;SDS011;54387;53.526;49.300;2023-11-19T06:42:01;2.55;;;1.30;;
67556;SDS011;54387;53.526;49.300;2023-11-19T06:44:27;3.50;;;1.20;;
67556;SDS011;54387;53.526;49.300;2023-11-19T06:46:54;4.30;;;1.63;;
67556;SDS011;54387;53.526;49.300;2023-11-19T06:49:20;4.00;;;1.48;;
67556;SDS011;54387;53.526;49.300;2023-11-19T06:51:47;3.88;;;1.70;;
67556;SDS011;54387;53.526;49.300;2023-11-19T06:54:13;1.92;;;1.00;;
67556;SDS011;54387;53.526;49.300;2023-11-19T06:56:40;2.25;;;1.27;;
67556;SDS011;54387;53.526;49.300;2023-11-19T06:59:07;3.30;;;1.38;;
67556;SDS011;54387;53.526;49.300;2023-11-19T07:01:35;5.70;;;1.40;;
67556;SDS011;54387;53.526;49.300;2023-11-19T07:04:02;8.05;;;1.52;;
67556;SDS011;54387;53.526;49.300;2023-11-19T07:06:35;2.75;;;1.25;;
67556;SDS011;54387;53.526;49.300;2023-11-19T07:09:02;5.22;;;1.70;;
67556;SDS011;54387;53.526;49.300;2023-11-19T07:11:37;5.75;;;1.50;;
67556;SDS011;54387;53.526;49.300;2023-11-19T07:14:07;4.85;;;1.70;;
67556;SDS011;54387;53.526;49.300;2023-11-19T07:16:34;10.65;;;2.67;;
67556;SDS011;54387;53.526;49.300;2023-11-19T07:19:05;1.98;;;1.25;;
67556;SDS011;54387;53.526;49.300;2023-11-19T07:21:32;4.07;;;1.20;;
67556;SDS011;54387;53.526;49.300;2023-11-19T07:23:59;3.00;;;1.15;;
67556;SDS011;54387;53.526;49.300;2023-11-19T07:26:26;4.95;;;1.25;;
67556;SDS011;54387;53.526;49.300;2023-11-19T07:28:52;4.90;;;1.35;;
67556;SDS011;54387;53.526;49.300;2023-11-19T07:31:19;8.88;;;1.50;;
67556;SDS011;54387;53.526;49.300;2023-11-19T07:33:46;4.30;;;1.58;;
67556;SDS011;54387;53.526;49.300;2023-11-19T07:36:13;4.82;;;1.65;;
67556;SDS011;54387;53.526;49.300;2023-11-19T07:38:40;7.32;;;1.90;;
67556;SDS011;54387;53.526;49.300;2023-11-19T07:41:06;3.65;;;1.75;;
67556;SDS011;54387;53.526;49.300;2023-11-19T07:43:35;6.55;;;2.63;;
67556;SDS011;54387;53.526;49.300;2023-11-19T07:46:02;3.58;;;2.05;;
67556;SDS011;54387;53.526;49.300;2023-11-19T07:48:30;6.25;;;2.22;;
67556;SDS011;54387;53.526;49.300;2023-11-19T07:50:57;5.38;;;2.50;;
67556;SDS011;54387;53.526;49.300;2023-11-19T07:53:23;4.68;;;2.88;;
67556;SDS011;54387;53.526;49.300;2023-11-19T07:55:49;5.93;;;3.28;;
67556;SDS011;54387;53.526;49.300;2023-11-19T07:58:15;11.05;;;4.55;;
67556;SDS011;54387;53.526;49.300;2023-11-19T08:00:42;7.13;;;3.50;;
67556;SDS011;54387;53.526;49.300;2023-11-19T08:03:08;8.45;;;2.75;;
67556;SDS011;54387;53.526;49.300;2023-11-19T08:05:35;6.65;;;2.65;;
67556;SDS011;54387;53.526;49.300;2023-11-19T08:08:01;6.93;;;2.70;;
67556;SDS011;54387;53.526;49.300;2023-11-19T08:10:28;3.97;;;2.67;;
67556;SDS011;54387;53.526;49.300;2023-11-19T08:12:55;9.00;;;2.53;;
67556;SDS011;54387;53.526;49.300;2023-11-19T08:15:21;6.00;;;2.50;;
67556;SDS011;54387;53.526;49.300;2023-11-19T08:17:47;2.05;;;1.50;;
67556;SDS011;54387;53.526;49.300;2023-11-19T08:20:13;5.30;;;2.70;;
67556;SDS011;54387;53.526;49.300;2023-11-19T08:22:40;2.65;;;1.13;;
67556;SDS011;54387;53.526;49.300;2023-11-19T08:25:06;6.90;;;2.55;;
67556;SDS011;54387;53.526;49.300;2023-11-19T08:27:33;5.00;;;2.22;;
67556;SDS011;54387;53.526;49.300;2023-11-19T08:29:59;8.02;;;2.58;;
67556;SDS011;54387;53.526;49.300;2023-11-19T08:32:26;13.27;;;2.15;;
67556;SDS011;54387;53.526;49.300;2023-11-19T08:34:53;6.32;;;1.90;;
67556;SDS011;54387;53.526;49.300;2023-11-19T08:37:20;6.10;;;1.90;;
67556;SDS011;54387;53.526;49.300;2023-11-19T08:39:47;9.30;;;2.20;;
67556;SDS011;54387;53.526;49.300;2023-11-19T08:42:14;4.95;;;2.53;;
67556;SDS011;54387;53.526;49.300;2023-11-19T08:44:41;6.32;;;1.95;;
67556;SDS011;54387;53.526;49.300;2023-11-19T08:47:13;3.72;;;2.13;;
67556;SDS011;54387;53.526;49.300;2023-11-19T08:49:41;3.38;;;2.05;;
67556;SDS011;54387;53.526;49.300;2023-11-19T08:52:08;5.65;;;2.40;;
67556;SDS011;54387;53.526;49.300;2023-11-19T08:54:34;6.57;;;2.42;;
67556;SDS011;54387;53.526;49.300;2023-11-19T08:57:02;3.95;;;2.50;;
67556;SDS011;54387;53.526;49.300;2023-11-19T08:59:29;4.07;;;2.30;;
67556;SDS011;54387;53.526;49.300;2023-11-19T09:01:56;15.68;;;3.15;;
67556;SDS011;54387;53.526;49.300;2023-11-19T09:04:22;8.70;;;2.20;;
67556;SDS011;54387;53.526;49.300;2023-11-19T09:06:49;6.10;;;2.40;;
67556;SDS011;54387;53.526;49.300;2023-11-19T09:09:16;7.10;;;2.70;;
67556;SDS011;54387;53.526;49.300;2023-11-19T09:11:42;5.55;;;2.45;;
67556;SDS011;54387;53.526;49.300;2023-11-19T09:14:09;5.30;;;1.95;;
67556;SDS011;54387;53.526;49.300;2023-11-19T09:16:35;2.65;;;1.73;;
67556;SDS011;54387;53.526;49.300;2023-11-19T09:19:02;7.03;;;2.47;;
67556;SDS011;54387;53.526;49.300;2023-11-19T09:21:28;4.55;;;2.05;;
67556;SDS011;54387;53.526;49.300;2023-11-19T09:23:58;9.55;;;2.97;;
67556;SDS011;54387;53.526;49.300;2023-11-19T09:26:24;7.70;;;2.35;;
67556;SDS011;54387;53.526;49.300;2023-11-19T09:28:51;6.75;;;2.10;;
67556;SDS011;54387;53.526;49.300;2023-11-19T09:31:17;4.78;;;2.05;;
67556;SDS011;54387;53.526;49.300;2023-11-19T09:33:44;9.38;;;2.67;;
67556;SDS011;54387;53.526;49.300;2023-11-19T09:36:14;7.70;;;2.35;;
67556;SDS011;54387;53.526;49.300;2023-11-19T09:38:43;4.45;;;1.88;;
67556;SDS011;54387;53.526;49.300;2023-11-19T09:41:09;3.05;;;2.13;;
67556;SDS011;54387;53.526;49.300;2023-11-19T09:43:38;4.70;;;2.35;;
67556;SDS011;54387;53.526;49.300;2023-11-19T09:46:06;5.22;;;2.40;;
67556;SDS011;54387;53.526;49.300;2023-11-19T09:48:37;3.72;;;1.75;;
67556;SDS011;54387;53.526;49.300;2023-11-19T09:51:06;7.20;;;2.70;;
67556;SDS011;54387;53.526;49.300;2023-11-19T09:53:35;8.75;;;3.40;;
67556;SDS011;54387;53.526;49.300;2023-11-19T09:56:03;9.35;;;3.35;;
67556;SDS011;54387;53.526;49.300;2023-11-19T09:58:31;7.28;;;2.80;;
67556;SDS011;54387;53.526;49.300;2023-11-19T10:00:58;9.00;;;3.17;;
67556;SDS011;54387;53.526;49.300;2023-11-19T10:03:31;9.10;;;2.78;;
67556;SDS011;54387;53.526;49.300;2023-11-19T10:06:00;11.45;;;4.20;;
67556;SDS011;54387;53.526;49.300;2023-11-19T10:08:28;8.45;;;3.55;;
67556;SDS011;54387;53.526;49.300;2023-11-19T10:10:55;8.40;;;3.25;;
67556;SDS011;54387;53.526;49.300;2023-11-19T10:13:30;7.43;;;3.78;;
67556;SDS011;54387;53.526;49.300;2023-11-19T10:15:57;10.50;;;4.25;;
67556;SDS011;54387;53.526;49.300;2023-11-19T10:18:24;6.50;;;3.95;;
67556;SDS011;54387;53.526;49.300;2023-11-19T10:20:53;8.88;;;4.18;;
67556;SDS011;54387;53.526;49.300;2023-11-19T10:23:20;10.23;;;4.68;;
67556;SDS011;54387;53.526;49.300;2023-11-19T10:25:47;7.55;;;4.65;;
67556;SDS011;54387;53.526;49.300;2023-11-19T10:28:16;6.90;;;4.22;;
67556;SDS011;54387;53.526;49.300;2023-11-19T10:30:44;8.25;;;4.93;;
67556;SDS011;54387;53.526;49.300;2023-11-19T10:33:16;12.73;;;5.32;;
67556;SDS011;54387;53.526;49.300;2023-11-19T10:35:56;11.93;;;4.60;;
67556;SDS011;54387;53.526;49.300;2023-11-19T10:38:24;13.18;;;5.30;;
67556;SDS011;54387;53.526;49.300;2023-11-19T10:40:52;11.57;;;5.20;;
67556;SDS011;54387;53.526;49.300;2023-11-19T10:43:19;12.48;;;5.85;;
67556;SDS011;54387;53.526;49.300;2023-11-19T10:45:48;10.05;;;4.93;;
67556;SDS011;54387;53.526;49.300;2023-11-19T10:48:15;14.25;;;5.78;;
67556;SDS011;54387;53.526;49.300;2023-11-19T10:50:42;13.25;;;6.13;;
67556;SDS011;54387;53.526;49.300;2023-11-19T10:53:12;14.05;;;6.63;;
67556;SDS011;54387;53.526;49.300;2023-11-19T10:55:41;10.25;;;5.75;;
67556;SDS011;54387;53.526;49.300;2023-11-19T10:58:15;11.90;;;6.63;;
67556;SDS011;54387;53.526;49.300;2023-11-19T11:03:20;11.10;;;6.20;;
67556;SDS011;54387;53.526;49.300;2023-11-19T11:05:55;19.63;;;7.80;;
67556;SDS011;54387;53.526;49.300;2023-11-19T11:08:23;18.00;;;7.13;;
67556;SDS011;54387;53.526;49.300;2023-11-19T11:13:24;11.05;;;6.28;;
67556;SDS011;54387;53.526;49.300;2023-11-19T11:15:53;13.73;;;7.03;;
67556;SDS011;54387;53.526;49.300;2023-11-19T11:18:26;17.92;;;7.93;;
67556;SDS011;54387;53.526;49.300;2023-11-19T11:20:58;16.90;;;8.45;;
67556;SDS011;54387;53.526;49.300;2023-11-19T11:23:37;22.88;;;9.57;;
67556;SDS011;54387;53.526;49.300;2023-11-19T11:29:16;13.10;;;6.85;;
67556;SDS011;54387;53.526;49.300;2023-11-19T11:31:56;16.27;;;7.22;;
67556;SDS011;54387;53.526;49.300;2023-11-19T11:34:52;11.43;;;6.65;;
67556;SDS011;54387;53.526;49.300;2023-11-19T11:37:45;14.18;;;7.03;;
67556;SDS011;54387;53.526;49.300;2023-11-19T11:40:15;13.07;;;7.10;;
67556;SDS011;54387;53.526;49.300;2023-11-19T11:42:44;12.60;;;6.07;;
67556;SDS011;54387;53.526;49.300;2023-11-19T11:45:11;13.30;;;6.30;;
67556;SDS011;54387;53.526;49.300;2023-11-19T11:48:04;16.17;;;7.10;;
67556;SDS011;54387;53.526;49.300;2023-11-19T11:50:25;9.73;;;5.97;;
67556;SDS011;54387;53.526;49.300;2023-11-19T11:58:18;15.27;;;6.95;;
67556;SDS011;54387;53.526;49.300;2023-11-19T12:00:45;12.57;;;6.30;;
67556;SDS011;54387;53.526;49.300;2023-11-19T12:03:13;9.70;;;5.63;;
67556;SDS011;54387;53.526;49.300;2023-11-19T12:05:46;15.52;;;6.38;;
67556;SDS011;54387;53.526;49.300;2023-11-19T12:08:14;13.30;;;5.93;;
67556;SDS011;54387;53.526;49.300;2023-11-19T12:10:46;10.98;;;6.50;;
67556;SDS011;54387;53.526;49.300;2023-11-19T12:13:20;10.30;;;6.40;;
67556;SDS011;54387;53.526;49.300;2023-11-19T12:18:29;15.95;;;6.18;;
67556;SDS011;54387;53.526;49.300;2023-11-19T12:20:59;12.07;;;6.00;;
67556;SDS011;54387;53.526;49.300;2023-11-19T12:23:26;15.52;;;6.10;;
67556;SDS011;54387;53.526;49.300;2023-11-19T12:25:56;13.27;;;6.45;;
67556;SDS011;54387;53.526;49.300;2023-11-19T12:28:22;6.38;;;4.22;;
67556;SDS011;54387;53.526;49.300;2023-11-19T12:30:52;9.98;;;5.55;;
67556;SDS011;54387;53.526;49.300;2023-11-19T12:33:21;12.40;;;5.50;;
67556;SDS011;54387;53.526;49.300;2023-11-19T12:35:48;14.82;;;5.95;;
67556;SDS011;54387;53.526;49.300;2023-11-19T12:38:21;8.20;;;4.93;;
67556;SDS011;54387;53.526;49.300;2023-11-19T12:43:36;12.50;;;5.68;;
67556;SDS011;54387;53.526;49.300;2023-11-19T12:46:16;14.40;;;5.90;;
67556;SDS011;54387;53.526;49.300;2023-11-19T12:48:47;13.20;;;5.78;;
67556;SDS011;54387;53.526;49.300;2023-11-19T12:51:14;8.85;;;4.57;;
67556;SDS011;54387;53.526;49.300;2023-11-19T12:53:48;8.55;;;5.13;;
67556;SDS011;54387;53.526;49.300;2023-11-19T12:56:23;7.57;;;4.63;;
67556;SDS011;54387;53.526;49.300;2023-11-19T12:58:50;12.13;;;5.55;;
67556;SDS011;54387;53.526;49.300;2023-11-19T13:01:17;8.80;;;4.85;;
67556;SDS011;54387;53.526;49.300;2023-11-19T13:03:46;12.90;;;5.45;;
67556;SDS011;54387;53.526;49.300;2023-11-19T13:06:14;18.10;;;5.00;;
67556;SDS011;54387;53.526;49.300;2023-11-19T13:11:12;14.95;;;4.57;;
67556;SDS011;54387;53.526;49.300;2023-11-19T13:13:55;12.55;;;5.65;;
67556;SDS011;54387;53.526;49.300;2023-11-19T13:16:22;9.32;;;5.40;;
67556;SDS011;54387;53.526;49.300;2023-11-19T13:18:49;11.52;;;5.25;;
67556;SDS011;54387;53.526;49.300;2023-11-19T13:21:15;14.32;;;5.35;;
67556;SDS011;54387;53.526;49.300;2023-11-19T13:23:42;9.80;;;4.68;;
67556;SDS011;54387;53.526;49.300;2023-11-19T13:26:09;13.45;;;5.38;;
67556;SDS011;54387;53.526;49.300;2023-11-19T13:28:37;15.15;;;5.72;;
67556;SDS011;54387;53.526;49.300;2023-11-19T13:31:04;12.30;;;5.32;;
67556;SDS011;54387;53.526;49.300;2023-11-19T13:33:31;10.63;;;5.55;;
67556;SDS011;54387;53.526;49.300;2023-11-19T13:35:57;10.32;;;5.10;;
67556;SDS011;54387;53.526;49.300;2023-11-19T13:38:25;11.48;;;5.45;;
67556;SDS011;54387;53.526;49.300;2023-11-19T13:40:52;16.35;;;6.18;;
67556;SDS011;54387;53.526;49.300;2023-11-19T13:43:18;39.75;;;7.22;;
67556;SDS011;54387;53.526;49.300;2023-11-19T13:45:45;16.25;;;5.93;;
67556;SDS011;54387;53.526;49.300;2023-11-19T13:48:11;13.90;;;5.45;;
67556;SDS011;54387;53.526;49.300;2023-11-19T13:50:38;16.52;;;6.70;;
67556;SDS011;54387;53.526;49.300;2023-11-19T13:53:04;11.70;;;5.47;;
67556;SDS011;54387;53.526;49.300;2023-11-19T13:55:30;17.30;;;6.38;;
67556;SDS011;54387;53.526;49.300;2023-11-19T13:57:56;14.68;;;5.93;;
67556;SDS011;54387;53.526;49.300;2023-11-19T14:00:24;16.17;;;6.30;;
67556;SDS011;54387;53.526;49.300;2023-11-19T14:02:50;16.38;;;6.63;;
67556;SDS011;54387;53.526;49.300;2023-11-19T14:05:17;21.70;;;6.97;;
67556;SDS011;54387;53.526;49.300;2023-11-19T14:07:44;20.65;;;7.28;;
67556;SDS011;54387;53.526;49.300;2023-11-19T14:10:13;26.80;;;7.68;;
67556;SDS011;54387;53.526;49.300;2023-11-19T14:12:41;17.17;;;6.45;;
67556;SDS011;54387;53.526;49.300;2023-11-19T14:15:08;25.17;;;6.78;;
67556;SDS011;54387;53.526;49.300;2023-11-19T14:17:35;19.65;;;7.13;;
67556;SDS011;54387;53.526;49.300;2023-11-19T14:20:02;17.10;;;7.05;;
67556;SDS011;54387;53.526;49.300;2023-11-19T14:22:41;38.55;;;10.23;;
67556;SDS011;54387;53.526;49.300;2023-11-19T14:25:09;18.52;;;7.72;;
67556;SDS011;54387;53.526;49.300;2023-11-19T14:27:39;16.42;;;7.53;;
67556;SDS011;54387;53.526;49.300;2023-11-19T14:30:08;25.90;;;8.23;;
67556;SDS011;54387;53.526;49.300;2023-11-19T14:32:39;19.17;;;8.40;;
67556;SDS011;54387;53.526;49.300;2023-11-19T14:35:08;29.20;;;8.98;;
67556;SDS011;54387;53.526;49.300;2023-11-19T14:37:34;21.42;;;9.43;;
67556;SDS011;54387;53.526;49.300;2023-11-19T14:40:00;23.58;;;8.52;;
67556;SDS011;54387;53.526;49.300;2023-11-19T14:42:29;32.63;;;9.80;;
67556;SDS011;54387;53.526;49.300;2023-11-19T14:44:56;26.30;;;9.23;;
67556;SDS011;54387;53.526;49.300;2023-11-19T14:47:22;23.25;;;8.80;;
67556;SDS011;54387;53.526;49.300;2023-11-19T14:49:49;32.03;;;10.30;;
67556;SDS011;54387;53.526;49.300;2023-11-19T14:52:15;29.48;;;10.30;;
67556;SDS011;54387;53.526;49.300;2023-11-19T14:54:43;23.92;;;9.23;;
67556;SDS011;54387;53.526;49.300;2023-11-19T14:57:10;25.85;;;9.25;;